createdAt,value
2019-05-19T00:03:05.642Z,16.54
2019-05-19T00:13:06.664Z,16.43
2019-05-19T00:23:07.804Z,16.41
2019-05-19T00:33:08.825Z,16.22
2019-05-19T00:43:10.171Z,16.01
2019-05-19T00:53:12.190Z,15.82
2019-05-19T01:03:13.460Z,15.76
2019-05-19T01:13:14.514Z,15.66
2019-05-19T01:23:15.540Z,15.42
2019-05-19T01:33:16.733Z,15.24
2019-05-19T01:43:17.901Z,15.06
2019-05-19T01:53:19.018Z,14.85
2019-05-19T02:03:20.180Z,14.69
2019-05-19T02:13:21.232Z,14.61
2019-05-19T02:23:22.457Z,14.47
2019-05-19T02:33:23.589Z,14.42
2019-05-19T02:43:25.429Z,14.40
2019-05-19T02:53:27.854Z,14.34
2019-05-19T03:03:29.118Z,14.11
2019-05-19T03:13:30.170Z,13.94
2019-05-19T03:23:31.465Z,13.80
2019-05-19T03:33:40.369Z,13.68
2019-05-19T03:43:41.755Z,13.59
2019-05-19T03:53:42.880Z,13.42
2019-05-19T04:03:44.021Z,13.50
2019-05-19T04:13:45.372Z,13.77
2019-05-19T04:23:47.342Z,14.06
2019-05-19T04:33:48.740Z,14.53
2019-05-19T04:43:49.807Z,14.98
2019-05-19T04:53:51.195Z,15.68
2019-05-19T05:03:52.468Z,16.46
2019-05-19T05:13:54.112Z,17.60
2019-05-19T05:23:55.112Z,18.50
2019-05-19T05:33:56.553Z,19.95
2019-05-19T05:43:57.626Z,19.95
2019-05-19T05:53:58.967Z,21.08
2019-05-19T06:04:00.099Z,22.14
2019-05-19T06:14:01.503Z,28.24
2019-05-19T06:24:03.724Z,35.86
2019-05-19T06:34:05.277Z,43.50
2019-05-19T06:44:06.772Z,47.29
2019-05-19T06:54:08.795Z,49.23
2019-05-19T07:04:12.917Z,52.70
2019-05-19T07:14:17.420Z,50.60
2019-05-19T07:24:19.390Z,49.43
2019-05-19T07:34:20.736Z,51.75
2019-05-19T07:44:23.523Z,53.53
2019-05-19T07:54:25.325Z,55.60
2019-05-19T08:04:27.613Z,56.75
2019-05-19T08:14:33.881Z,57.34
2019-05-19T08:24:35.688Z,57.52
2019-05-19T08:34:43.709Z,56.78
2019-05-19T08:44:45.414Z,56.89
2019-05-19T08:54:46.575Z,55.54
2019-05-19T09:04:47.680Z,55.67
2019-05-19T09:14:50.441Z,56.16
2019-05-19T09:24:52.038Z,56.43
2019-05-19T09:34:53.585Z,55.70
2019-05-19T09:44:56.661Z,55.76
2019-05-19T09:54:58.002Z,55.09
2019-05-19T10:04:59.178Z,53.38
2019-05-19T10:15:01.095Z,52.38
2019-05-19T10:25:21.074Z,54.08
2019-05-19T10:35:12.003Z,50.80
2019-05-19T10:45:13.476Z,49.78
2019-05-19T10:55:15.209Z,49.62
2019-05-19T11:05:16.455Z,48.04
2019-05-19T11:15:17.846Z,37.38
2019-05-19T11:25:33.027Z,32.53
2019-05-19T11:35:22.667Z,30.94
2019-05-19T11:45:23.916Z,30.17
2019-05-19T11:55:25.247Z,29.27
2019-05-19T12:05:26.879Z,28.98
2019-05-19T12:15:28.054Z,30.15
2019-05-19T12:25:29.300Z,30.50
2019-05-19T12:35:34.153Z,31.22
2019-05-19T12:45:36.187Z,31.73
2019-05-19T12:55:37.699Z,31.10
2019-05-19T13:05:39.409Z,31.85
2019-05-19T13:15:40.854Z,33.35
2019-05-19T13:25:42.111Z,32.30
2019-05-19T13:35:43.265Z,32.11
2019-05-19T13:45:44.527Z,33.10
2019-05-19T13:55:45.776Z,31.65
2019-05-19T14:05:47.034Z,31.89
2019-05-19T14:15:48.418Z,31.68
2019-05-19T14:25:50.475Z,31.19
2019-05-19T14:35:51.833Z,31.83
2019-05-19T14:45:53.124Z,31.81
2019-05-19T14:55:54.653Z,31.78
2019-05-19T15:05:55.947Z,31.97
2019-05-19T15:15:58.129Z,32.23
2019-05-19T15:25:59.288Z,30.03
2019-05-19T15:36:00.470Z,28.43
2019-05-19T15:46:03.252Z,29.34
2019-05-19T15:56:08.275Z,30.34
2019-05-19T16:06:09.588Z,28.92
2019-05-19T16:16:11.339Z,29.47
2019-05-19T16:26:12.989Z,29.47
2019-05-19T16:36:14.796Z,28.89
2019-05-19T16:46:16.222Z,28.02
2019-05-19T16:56:17.355Z,27.20
2019-05-19T17:06:18.387Z,26.78
2019-05-19T17:16:19.744Z,26.38
2019-05-19T17:26:20.745Z,26.26
2019-05-19T17:36:21.779Z,26.33
2019-05-19T17:46:23.243Z,25.43
2019-05-19T17:56:29.961Z,24.85
2019-05-19T18:06:31.577Z,24.39
2019-05-19T18:16:33.047Z,23.62
2019-05-19T18:26:34.159Z,23.23
2019-05-19T18:36:35.326Z,22.88
2019-05-19T18:46:36.480Z,22.48
2019-05-19T18:56:37.582Z,21.95
2019-05-19T19:06:38.772Z,21.44
2019-05-19T19:16:39.915Z,21.33
2019-05-19T19:26:41.059Z,21.13
2019-05-19T19:36:42.117Z,20.89
2019-05-19T19:46:44.384Z,20.58
2019-05-19T19:56:45.452Z,20.47
2019-05-19T20:06:46.630Z,20.47
2019-05-19T20:16:47.682Z,20.66
2019-05-19T20:26:48.705Z,20.78
2019-05-19T20:36:49.758Z,20.89
2019-05-19T20:46:50.817Z,20.75
2019-05-19T20:56:52.802Z,20.69
2019-05-19T21:06:54.219Z,20.52
2019-05-19T21:16:55.559Z,20.17
2019-05-19T21:26:56.714Z,19.95
2019-05-19T21:36:57.733Z,19.82
2019-05-19T21:46:58.822Z,19.83
2019-05-19T21:56:59.837Z,19.72
2019-05-19T22:07:08.499Z,19.62
2019-05-19T22:17:09.699Z,19.47
2019-05-19T22:27:10.784Z,19.21
2019-05-19T22:37:11.821Z,19.10
2019-05-19T22:47:13.456Z,19.17
2019-05-19T22:57:14.464Z,19.22
2019-05-19T23:07:15.517Z,19.20
2019-05-19T23:17:16.760Z,19.25
2019-05-19T23:27:17.857Z,19.18
2019-05-19T23:37:18.931Z,19.17
2019-05-19T23:47:19.981Z,18.86
2019-05-19T23:57:21.011Z,18.80
